Time;durP1;ratioP1;P1;durP2;ratioP2;P2;SDS_P1;SDS_P2;PMS_P1;PMS_P2;Temp;Humidity;BMP_temperature;BMP_pressure;BME280_temperature;BME280_humidity;BME280_pressure;Samples;Min_cycle;Max_cycle;Signal;HPM_P1;HPM_P2
2021/03/31 04:02:16;;;;;;;15.18;11.05;;;6.10;99.90;;;;;;5066663;23;20246;-71
2021/03/31 04:04:42;;;;;;;13.15;10.27;;;6.10;99.90;;;;;;4896005;29;20274;-70
2021/03/31 04:07:09;;;;;;;12.90;10.30;;;6.10;99.90;;;;;;4877533;29;20262;-71
2021/03/31 04:09:36;;;;;;;16.75;11.40;;;6.00;99.90;;;;;;4893944;29;20211;-71
2021/03/31 04:12:04;;;;;;;16.98;11.57;;;6.00;99.90;;;;;;4895989;29;20294;-71
2021/03/31 04:14:32;;;;;;;12.30;9.95;;;6.00;99.90;;;;;;4896347;29;20215;-71
2021/03/31 04:17:01;;;;;;;13.90;11.80;;;6.00;99.90;;;;;;4896082;29;20195;-71
2021/03/31 04:19:30;;;;;;;14.25;11.70;;;5.90;99.90;;;;;;4896798;29;20715;-71
2021/03/31 04:21:56;;;;;;;16.55;12.05;;;5.90;99.90;;;;;;4898022;29;20238;-71
2021/03/31 04:24:22;;;;;;;17.20;11.85;;;5.90;99.90;;;;;;4899810;29;20207;-70
2021/03/31 04:26:50;;;;;;;14.95;12.50;;;5.90;99.90;;;;;;4899017;29;20225;-70
2021/03/31 04:29:17;;;;;;;16.38;12.50;;;5.90;99.90;;;;;;4900254;29;20214;-70
2021/03/31 04:31:44;;;;;;;15.77;12.70;;;5.80;99.90;;;;;;4899604;29;20234;-70
2021/03/31 04:34:11;;;;;;;17.00;12.90;;;5.80;99.90;;;;;;4899813;29;20303;-70
2021/03/31 04:36:38;;;;;;;15.60;13.00;;;5.80;99.90;;;;;;4899723;29;20231;-70
2021/03/31 04:39:05;;;;;;;17.65;14.30;;;5.80;99.90;;;;;;4899411;29;20703;-71
2021/03/31 04:41:32;;;;;;;16.58;14.02;;;5.80;99.90;;;;;;4898036;29;20526;-70
2021/03/31 04:43:58;;;;;;;17.55;13.77;;;5.80;99.90;;;;;;4899360;29;20234;-70
2021/03/31 04:46:24;;;;;;;19.40;14.50;;;5.80;99.90;;;;;;4900020;29;20214;-70
2021/03/31 04:48:50;;;;;;;17.88;14.02;;;5.80;99.90;;;;;;4899365;29;20218;-71
2021/03/31 04:51:17;;;;;;;20.35;13.40;;;5.80;99.90;;;;;;4899922;29;20638;-71
2021/03/31 04:53:44;;;;;;;17.20;13.52;;;5.80;99.90;;;;;;4898697;29;20278;-71
2021/03/31 04:56:10;;;;;;;15.20;13.02;;;5.80;99.90;;;;;;4898075;29;20226;-71
2021/03/31 04:58:36;;;;;;;18.45;13.73;;;5.80;99.90;;;;;;4898857;29;20227;-71
2021/03/31 05:01:03;;;;;;;19.35;13.77;;;5.80;99.90;;;;;;4898939;29;20701;-71
2021/03/31 05:03:29;;;;;;;18.00;14.45;;;5.80;99.90;;;;;;4898710;29;20298;-71
2021/03/31 05:05:56;;;;;;;15.70;13.48;;;5.80;99.90;;;;;;4899072;29;20219;-71
2021/03/31 05:08:22;;;;;;;18.27;13.50;;;5.80;99.90;;;;;;4899007;29;20574;-71
2021/03/31 05:10:49;;;;;;;14.68;13.02;;;5.80;99.90;;;;;;4898971;29;20904;-70
2021/03/31 05:13:15;;;;;;;20.60;13.48;;;5.80;99.90;;;;;;4899480;29;20516;-70
2021/03/31 05:15:42;;;;;;;16.67;13.90;;;5.80;99.90;;;;;;4899904;29;20215;-71
2021/03/31 05:18:08;;;;;;;16.75;13.38;;;5.80;99.90;;;;;;4899109;29;20231;-69
2021/03/31 05:20:35;;;;;;;18.02;13.73;;;5.80;99.90;;;;;;4898783;29;20746;-69
2021/03/31 05:23:01;;;;;;;16.73;13.10;;;5.80;99.90;;;;;;4897727;29;20207;-69
2021/03/31 05:25:27;;;;;;;18.08;14.13;;;5.90;99.90;;;;;;4898864;29;20212;-69
2021/03/31 05:27:54;;;;;;;14.80;12.55;;;6.10;99.90;;;;;;4897645;29;20207;-70
2021/03/31 05:30:22;;;;;;;13.15;11.90;;;6.30;99.90;;;;;;4899039;29;20632;-70
2021/03/31 05:32:48;;;;;;;16.13;12.40;;;6.40;99.90;;;;;;4897368;29;20211;-68
2021/03/31 05:35:15;;;;;;;19.00;13.20;;;6.40;99.90;;;;;;4898458;29;20536;-70
2021/03/31 05:37:41;;;;;;;17.60;13.20;;;6.40;99.90;;;;;;4897896;29;20218;-70
2021/03/31 05:40:08;;;;;;;17.75;11.65;;;6.40;99.90;;;;;;4898609;29;20331;-70
2021/03/31 05:42:36;;;;;;;16.13;12.90;;;6.40;99.90;;;;;;4897086;29;20211;-71
2021/03/31 05:45:06;;;;;;;20.92;13.60;;;6.40;99.90;;;;;;4898352;29;20235;-71
2021/03/31 05:47:34;;;;;;;15.88;12.90;;;6.40;99.90;;;;;;4897960;29;20213;-71
2021/03/31 05:50:01;;;;;;;19.95;13.63;;;6.40;99.90;;;;;;4898062;29;20211;-72
2021/03/31 05:52:28;;;;;;;21.65;13.18;;;6.50;99.90;;;;;;4896452;29;20288;-72
2021/03/31 05:54:54;;;;;;;18.25;15.25;;;6.50;99.90;;;;;;4898212;29;20259;-72
2021/03/31 05:57:21;;;;;;;17.55;13.52;;;6.50;99.90;;;;;;4897606;29;20637;-70
2021/03/31 05:59:47;;;;;;;16.13;12.38;;;6.50;99.90;;;;;;4898088;29;20697;-70
2021/03/31 06:02:16;;;;;;;19.05;14.82;;;6.60;99.90;;;;;;4896842;29;20238;-70
2021/03/31 06:04:44;;;;;;;17.17;14.13;;;6.60;99.90;;;;;;4898224;29;20215;-71
2021/03/31 06:07:11;;;;;;;15.63;14.02;;;6.70;99.90;;;;;;4897446;29;20242;-71
2021/03/31 06:10:05;;;;;;;21.10;13.93;;;6.70;99.90;;;;;;4898533;29;20267;-71
2021/03/31 06:12:32;;;;;;;16.55;13.10;;;6.80;99.90;;;;;;4896841;29;20231;-71
2021/03/31 06:15:17;;;;;;;16.23;12.95;;;6.80;99.90;;;;;;4898088;29;20622;-71
2021/03/31 06:17:47;;;;;;;16.70;13.30;;;6.90;99.90;;;;;;4897089;29;20487;-71
2021/03/31 06:20:33;;;;;;;18.55;14.88;;;7.00;99.90;;;;;;4897975;29;20211;-71
2021/03/31 06:23:09;;;;;;;15.98;13.25;;;7.00;99.90;;;;;;4895812;29;20646;-72
2021/03/31 06:25:43;;;;;;;17.17;14.45;;;7.10;99.90;;;;;;4897359;29;20199;-71
2021/03/31 06:28:10;;;;;;;19.77;13.77;;;7.20;99.90;;;;;;4896954;29;20198;-72
2021/03/31 06:30:36;;;;;;;21.67;14.25;;;7.20;99.90;;;;;;4897773;29;20231;-72
2021/03/31 06:33:04;;;;;;;15.43;13.85;;;7.30;99.90;;;;;;4896543;29;20251;-71
2021/03/31 06:35:30;;;;;;;18.92;14.45;;;7.40;99.90;;;;;;4897665;29;20679;-71
2021/03/31 06:38:11;;;;;;;17.63;14.13;;;7.50;99.90;;;;;;4896903;29;20247;-72
2021/03/31 06:40:43;;;;;;;16.58;13.90;;;7.60;99.90;;;;;;4897110;29;20784;-72
2021/03/31 06:43:16;;;;;;;16.50;14.60;;;7.70;99.90;;;;;;4895666;29;20215;-71
2021/03/31 06:45:51;;;;;;;16.40;12.82;;;7.80;99.90;;;;;;4897523;29;20200;-70
2021/03/31 06:48:20;;;;;;;16.92;14.52;;;7.90;99.90;;;;;;4897026;29;20280;-72
2021/03/31 06:50:46;;;;;;;15.88;14.18;;;8.00;99.90;;;;;;4897280;29;20229;-73
2021/03/31 06:53:13;;;;;;;19.65;15.00;;;8.00;99.90;;;;;;4896502;29;20215;-72
2021/03/31 06:55:39;;;;;;;14.73;13.13;;;8.20;99.90;;;;;;4897623;29;20215;-72
2021/03/31 06:58:07;;;;;;;18.10;14.15;;;8.30;99.90;;;;;;4897208;29;20259;-71
2021/03/31 07:00:35;;;;;;;20.10;14.38;;;8.40;99.90;;;;;;4899300;29;20334;-71
2021/03/31 07:03:05;;;;;;;17.63;14.18;;;8.60;99.90;;;;;;4897123;29;20195;-71
2021/03/31 07:05:33;;;;;;;18.00;13.85;;;8.70;99.90;;;;;;4898111;29;20389;-71
2021/03/31 07:08:05;;;;;;;14.85;12.10;;;8.80;99.90;;;;;;4896038;29;20298;-71
2021/03/31 07:10:41;;;;;;;17.38;14.02;;;9.00;99.90;;;;;;4895628;29;20730;-73
2021/03/31 07:13:08;;;;;;;15.48;12.13;;;9.20;99.90;;;;;;4895638;29;20210;-71
2021/03/31 07:15:35;;;;;;;14.85;11.80;;;9.20;99.90;;;;;;4896999;29;20216;-72
2021/03/31 07:18:02;;;;;;;19.60;13.05;;;9.40;99.90;;;;;;4895022;29;20572;-73
2021/03/31 07:20:30;;;;;;;17.35;12.50;;;9.40;99.90;;;;;;4895171;29;20235;-70
2021/03/31 07:23:00;;;;;;;16.17;12.40;;;9.60;99.90;;;;;;4895194;29;20511;-71
2021/03/31 07:25:26;;;;;;;21.17;13.05;;;9.70;99.90;;;;;;4886586;29;20219;-71
2021/03/31 07:27:56;;;;;;;14.45;12.43;;;9.80;99.90;;;;;;4895777;29;20221;-71
2021/03/31 07:30:26;;;;;;;22.58;12.30;;;9.90;99.90;;;;;;4895841;29;20230;-72
2021/03/31 07:32:55;;;;;;;17.48;12.43;;;10.00;99.90;;;;;;4895918;29;20688;-71
2021/03/31 07:35:23;;;;;;;16.27;12.95;;;10.20;99.90;;;;;;4895950;29;20294;-71
2021/03/31 07:37:50;;;;;;;21.75;14.27;;;10.30;99.90;;;;;;4895010;29;20207;-70
2021/03/31 07:40:19;;;;;;;17.75;13.18;;;10.40;99.90;;;;;;4896335;29;20392;-71
2021/03/31 07:42:49;;;;;;;18.15;13.43;;;10.50;99.90;;;;;;4894952;29;20211;-70
2021/03/31 07:45:18;;;;;;;18.15;12.85;;;10.70;99.90;;;;;;4896695;29;20196;-70
2021/03/31 07:47:46;;;;;;;18.23;13.30;;;11.00;99.90;;;;;;4895779;29;20262;-70
2021/03/31 07:50:13;;;;;;;18.58;13.18;;;11.10;99.90;;;;;;4896062;29;20696;-70
2021/03/31 07:52:51;;;;;;;18.08;14.80;;;11.20;99.90;;;;;;4893985;29;20475;-70
2021/03/31 07:55:35;;;;;;;18.55;14.60;;;11.40;99.90;;;;;;4897268;29;20210;-71
2021/03/31 07:58:18;;;;;;;15.30;13.65;;;11.40;99.90;;;;;;4898875;29;20750;-71
2021/03/31 08:00:53;;;;;;;15.88;12.45;;;11.50;99.90;;;;;;4898263;29;20243;-71
2021/03/31 08:03:21;;;;;;;19.73;13.65;;;11.70;99.90;;;;;;4899085;29;20197;-72
2021/03/31 08:06:07;;;;;;;18.92;14.40;;;11.80;99.90;;;;;;4900189;29;20215;-72
2021/03/31 08:08:34;;;;;;;18.95;13.35;;;12.00;99.90;;;;;;4899208;29;20234;-72
2021/03/31 08:11:01;;;;;;;18.50;12.68;;;12.10;99.90;;;;;;4899239;29;20744;-71
2021/03/31 08:13:29;;;;;;;16.48;12.77;;;12.10;99.90;;;;;;4898923;29;20620;-71
2021/03/31 08:15:57;;;;;;;17.55;13.13;;;12.30;99.90;;;;;;4899739;29;20216;-70
2021/03/31 08:18:25;;;;;;;18.70;13.35;;;12.40;99.90;;;;;;4899760;29;20282;-72
2021/03/31 08:20:51;;;;;;;17.90;13.65;;;12.40;99.90;;;;;;4899851;29;20235;-71
2021/03/31 08:23:45;;;;;;;18.08;13.85;;;12.60;99.90;;;;;;4898956;29;20211;-72
2021/03/31 08:26:32;;;;;;;17.75;13.02;;;12.80;99.90;;;;;;4898986;29;20215;-72
2021/03/31 08:28:59;;;;;;;17.93;12.20;;;13.10;99.90;;;;;;4899716;29;20196;-71
2021/03/31 08:31:28;;;;;;;18.07;13.90;;;13.30;99.90;;;;;;4899731;29;20495;-72
2021/03/31 08:33:55;;;;;;;16.50;12.63;;;13.50;99.90;;;;;;4898933;29;20497;-71
2021/03/31 08:36:22;;;;;;;18.80;12.63;;;13.70;99.90;;;;;;4899421;29;20467;-71
2021/03/31 08:38:52;;;;;;;17.20;12.80;;;13.80;99.90;;;;;;4898881;29;20499;-70
2021/03/31 08:41:21;;;;;;;22.80;13.67;;;13.90;99.90;;;;;;4898733;29;20487;-71
2021/03/31 08:43:49;;;;;;;17.50;12.33;;;14.00;99.90;;;;;;4898314;29;20478;-70
2021/03/31 08:46:27;;;;;;;18.10;11.93;;;14.10;99.90;;;;;;4898959;29;20483;-71
2021/03/31 08:48:54;;;;;;;14.90;12.47;;;14.20;99.90;;;;;;4899277;29;20546;-71
2021/03/31 08:51:20;;;;;;;16.43;12.20;;;14.40;99.90;;;;;;4898757;29;20491;-71
2021/03/31 08:53:47;;;;;;;17.67;11.50;;;14.60;99.90;;;;;;4898020;29;20467;-71
2021/03/31 08:56:17;;;;;;;15.97;12.30;;;14.70;99.90;;;;;;4898309;29;20475;-71
2021/03/31 08:58:43;;;;;;;15.10;11.97;;;14.90;99.90;;;;;;4898543;29;21059;-71
2021/03/31 09:01:10;;;;;;;14.03;11.33;;;15.00;99.90;;;;;;4898997;29;20499;-71
2021/03/31 09:03:36;;;;;;;14.57;10.90;;;15.10;99.90;;;;;;4898592;29;21027;-70
2021/03/31 09:06:03;;;;;;;16.30;10.90;;;15.30;99.90;;;;;;4899068;29;20471;-71
2021/03/31 09:08:31;;;;;;;15.77;11.53;;;15.40;99.90;;;;;;4897752;29;20463;-72
2021/03/31 09:11:00;;;;;;;18.93;12.20;;;15.50;99.80;;;;;;4898217;29;20492;-71
2021/03/31 09:13:29;;;;;;;18.40;11.97;;;15.60;98.90;;;;;;4898111;29;20464;-71
2021/03/31 09:15:56;;;;;;;15.43;10.30;;;15.70;98.10;;;;;;4899561;29;20824;-71
2021/03/31 09:18:24;;;;;;;18.20;11.00;;;15.70;97.40;;;;;;4898608;29;20495;-72
2021/03/31 09:20:51;;;;;;;13.90;10.50;;;15.70;97.20;;;;;;4898736;29;20513;-71
2021/03/31 09:23:22;;;;;;;13.30;10.57;;;15.90;96.70;;;;;;4897343;29;20467;-72
2021/03/31 09:25:57;;;;;;;14.20;9.80;;;15.90;96.50;;;;;;4898541;29;20475;-72
2021/03/31 09:28:23;;;;;;;16.00;11.33;;;16.10;96.30;;;;;;4898758;29;20467;-72
2021/03/31 09:30:51;;;;;;;11.67;10.50;;;16.10;96.00;;;;;;4898339;29;20646;-72
2021/03/31 09:33:26;;;;;;;17.07;10.77;;;16.30;96.00;;;;;;4897871;29;20554;-72
2021/03/31 09:35:53;;;;;;;13.07;10.80;;;16.50;94.90;;;;;;4898407;29;20904;-72
2021/03/31 09:38:26;;;;;;;12.67;11.13;;;16.50;95.40;;;;;;4897679;29;20521;-72
2021/03/31 09:41:02;;;;;;;14.23;10.33;;;16.60;95.90;;;;;;4897863;29;21066;-70
2021/03/31 09:43:30;;;;;;;15.03;10.73;;;16.70;95.80;;;;;;4896169;29;20505;-72
2021/03/31 09:45:57;;;;;;;11.90;10.67;;;16.90;95.10;;;;;;4897556;29;20972;-71
2021/03/31 09:48:24;;;;;;;14.03;9.47;;;16.90;95.60;;;;;;4895646;29;20960;-71
2021/03/31 09:50:50;;;;;;;13.50;10.53;;;17.00;95.20;;;;;;4897796;29;20491;-70
2021/03/31 09:53:17;;;;;;;14.30;9.67;;;17.10;94.10;;;;;;4896612;29;20491;-71
2021/03/31 09:55:43;;;;;;;13.03;10.47;;;17.20;94.60;;;;;;4898095;29;20784;-72
2021/03/31 09:58:10;;;;;;;14.70;11.00;;;17.30;94.40;;;;;;4896652;29;20471;-72
2021/03/31 10:00:38;;;;;;;13.17;10.90;;;17.40;93.80;;;;;;4897110;29;20487;-74
2021/03/31 10:03:06;;;;;;;13.23;9.67;;;17.50;93.40;;;;;;4896993;29;20467;-75
2021/03/31 10:05:33;;;;;;;13.23;10.13;;;17.60;93.20;;;;;;4898000;29;20500;-75
2021/03/31 10:08:00;;;;;;;11.20;9.77;;;17.70;93.40;;;;;;4897248;29;20503;-75
2021/03/31 10:10:41;;;;;;;12.00;10.00;;;17.90;93.40;;;;;;4897780;29;20944;-75
2021/03/31 10:13:08;;;;;;;11.50;9.67;;;18.00;91.90;;;;;;4896744;29;20498;-75
2021/03/31 10:15:35;;;;;;;10.60;8.77;;;18.00;91.90;;;;;;4897976;29;20474;-75
2021/03/31 10:18:01;;;;;;;10.70;9.47;;;18.00;90.80;;;;;;4897180;29;21003;-75
2021/03/31 10:20:30;;;;;;;13.87;10.47;;;18.00;90.90;;;;;;4897095;29;20491;-75
2021/03/31 10:22:56;;;;;;;14.23;10.20;;;18.00;90.20;;;;;;4896751;29;20562;-75
2021/03/31 10:25:27;;;;;;;11.40;9.50;;;18.10;91.10;;;;;;4897683;29;20471;-75
2021/03/31 10:27:54;;;;;;;14.73;9.90;;;18.20;90.30;;;;;;4896784;29;20479;-73
2021/03/31 10:30:27;;;;;;;10.67;9.23;;;18.20;90.30;;;;;;4897744;29;20463;-74
2021/03/31 10:32:54;;;;;;;9.13;8.20;;;18.30;89.20;;;;;;4896548;29;20468;-76
2021/03/31 10:35:39;;;;;;;15.20;9.77;;;18.30;89.30;;;;;;4897220;29;20471;-76
2021/03/31 10:38:08;;;;;;;9.40;8.07;;;18.60;87.80;;;;;;4897132;29;20470;-76
2021/03/31 10:51:50;;;;;;;10.47;7.77;;;19.20;83.10;;;;;;4893086;29;20518;-72
2021/03/31 10:54:18;;;;;;;9.40;7.90;;;19.30;82.10;;;;;;4878068;29;20775;-72
2021/03/31 10:56:50;;;;;;;8.20;7.40;;;19.50;80.70;;;;;;4892086;29;20807;-72
2021/03/31 10:59:17;;;;;;;7.70;7.00;;;19.50;79.30;;;;;;4896568;29;21051;-72
2021/03/31 11:01:44;;;;;;;7.37;6.53;;;19.60;79.10;;;;;;4896323;29;20495;-72
2021/03/31 11:04:10;;;;;;;8.50;7.70;;;19.60;78.70;;;;;;4897105;29;20472;-71
2021/03/31 11:06:36;;;;;;;8.33;6.23;;;19.70;76.10;;;;;;4897941;29;20832;-72
2021/03/31 11:09:02;;;;;;;7.43;6.67;;;19.80;76.60;;;;;;4897592;29;20523;-72
2021/03/31 11:11:29;;;;;;;7.80;7.10;;;19.80;75.90;;;;;;4896421;29;20487;-72
2021/03/31 11:13:55;;;;;;;8.10;7.30;;;19.80;75.70;;;;;;4896744;29;20468;-72
2021/03/31 11:16:22;;;;;;;9.33;6.70;;;19.80;75.90;;;;;;4896542;29;20527;-72
2021/03/31 11:18:55;;;;;;;8.23;6.90;;;19.90;76.50;;;;;;4897086;29;20495;-73
2021/03/31 11:26:46;;;;;;;9.53;6.23;;;20.10;75.00;;;;;;4877042;29;20500;-70
2021/03/31 11:29:12;;;;;;;8.00;7.20;;;20.10;73.60;;;;;;4878475;29;20491;-73
2021/03/31 11:31:40;;;;;;;7.50;6.03;;;20.20;72.30;;;;;;4880640;29;20496;-72
2021/03/31 11:34:07;;;;;;;4.87;4.47;;;20.40;70.80;;;;;;4881844;29;20476;-71
2021/03/31 11:36:33;;;;;;;8.23;5.13;;;20.40;67.50;;;;;;4882109;29;21085;-71
2021/03/31 11:39:00;;;;;;;4.80;4.40;;;20.40;66.80;;;;;;4900209;29;20496;-72
2021/03/31 11:41:26;;;;;;;5.90;4.67;;;20.60;65.90;;;;;;4900077;29;20487;-71
2021/03/31 11:43:52;;;;;;;4.80;4.47;;;20.70;66.40;;;;;;4900165;29;20473;-72
2021/03/31 11:46:19;;;;;;;5.23;4.80;;;20.70;64.80;;;;;;4900433;29;20554;-72
2021/03/31 11:48:46;;;;;;;5.37;4.50;;;20.70;66.00;;;;;;4899898;29;20972;-72
2021/03/31 11:51:12;;;;;;;4.83;4.10;;;20.70;64.10;;;;;;4900176;29;20491;-73
2021/03/31 11:53:38;;;;;;;5.37;4.87;;;20.80;64.10;;;;;;4899082;29;20463;-71
2021/03/31 11:56:05;;;;;;;7.27;4.90;;;20.80;63.60;;;;;;4900078;29;20526;-72
2021/03/31 11:58:31;;;;;;;3.60;3.50;;;20.80;56.50;;;;;;4900176;29;20530;-72
2021/03/31 12:00:59;;;;;;;5.73;3.57;;;20.90;55.10;;;;;;4900142;29;20499;-73
2021/03/31 12:03:25;;;;;;;3.70;3.40;;;21.00;55.30;;;;;;4900103;29;20775;-72
2021/03/31 12:05:52;;;;;;;4.47;4.10;;;21.00;54.50;;;;;;4899162;29;20531;-73
2021/03/31 12:08:19;;;;;;;4.30;3.90;;;21.20;54.80;;;;;;4899083;29;20464;-74
2021/03/31 12:10:45;;;;;;;10.20;4.40;;;21.20;53.60;;;;;;4899919;29;20494;-72
2021/03/31 12:13:12;;;;;;;4.33;4.00;;;21.30;54.40;;;;;;4898639;29;20484;-72
2021/03/31 12:15:38;;;;;;;5.07;2.90;;;21.30;53.20;;;;;;4899696;29;20816;-72
2021/03/31 12:18:04;;;;;;;3.80;3.50;;;21.40;53.20;;;;;;4899451;29;20475;-72
2021/03/31 12:20:31;;;;;;;3.37;3.17;;;21.30;53.60;;;;;;4899675;29;20506;-71
2021/03/31 12:22:58;;;;;;;4.03;3.57;;;21.50;53.40;;;;;;4897596;29;20574;-71
2021/03/31 12:25:24;;;;;;;9.30;4.10;;;21.40;51.40;;;;;;4899610;29;20471;-72
2021/03/31 12:27:52;;;;;;;3.87;3.57;;;21.50;52.10;;;;;;4898709;29;20477;-73
2021/03/31 12:30:19;;;;;;;3.87;3.60;;;21.60;51.50;;;;;;4899126;29;20523;-73
2021/03/31 12:32:46;;;;;;;4.27;4.00;;;21.60;50.30;;;;;;4898068;29;20460;-72
2021/03/31 12:35:13;;;;;;;7.03;4.40;;;21.70;50.20;;;;;;4899596;29;20556;-72
2021/03/31 12:37:40;;;;;;;7.33;3.97;;;21.60;49.40;;;;;;4898100;29;20470;-72
2021/03/31 12:40:09;;;;;;;4.43;4.00;;;21.70;48.80;;;;;;4899187;29;20491;-72
2021/03/31 12:42:35;;;;;;;5.70;4.47;;;21.70;49.50;;;;;;4897149;29;20866;-72
2021/03/31 12:45:01;;;;;;;5.43;3.90;;;21.80;49.30;;;;;;4899305;29;20483;-71
2021/03/31 12:47:28;;;;;;;3.87;3.67;;;21.90;48.30;;;;;;4881494;29;20509;-71
2021/03/31 12:49:55;;;;;;;4.70;4.50;;;21.90;49.30;;;;;;4899124;29;20475;-73
2021/03/31 12:52:26;;;;;;;5.03;4.73;;;21.90;47.90;;;;;;4896778;29;20494;-76
2021/03/31 12:54:54;;;;;;;4.73;4.37;;;21.90;47.40;;;;;;4898544;29;20588;-74
2021/03/31 12:57:23;;;;;;;4.27;3.90;;;21.90;47.60;;;;;;4898799;29;20530;-76
2021/03/31 12:59:49;;;;;;;5.60;5.10;;;21.90;47.40;;;;;;4899240;29;20582;-74
2021/03/31 13:02:16;;;;;;;4.70;4.23;;;21.90;47.40;;;;;;4897697;29;20708;-73
2021/03/31 13:04:42;;;;;;;4.87;4.53;;;21.90;47.20;;;;;;4899140;29;20536;-71
2021/03/31 13:07:08;;;;;;;4.07;3.70;;;21.90;47.40;;;;;;4893842;29;20476;-71
2021/03/31 13:09:34;;;;;;;4.30;4.00;;;21.90;46.90;;;;;;4880156;29;20471;-72
2021/03/31 13:12:03;;;;;;;4.90;4.60;;;21.90;46.10;;;;;;4879481;29;20500;-71
2021/03/31 13:17:17;;;;;;;4.80;4.50;;;21.90;46.30;;;;;;4879945;29;20444;-75
2021/03/31 13:22:40;;;;;;;5.77;5.23;;;21.90;46.30;;;;;;4872626;29;20495;-74
2021/03/31 13:25:15;;;;;;;5.03;4.80;;;22.00;46.60;;;;;;4898940;29;20458;-74
2021/03/31 13:28:04;;;;;;;4.73;4.33;;;22.00;45.20;;;;;;4898111;29;20451;-74
2021/03/31 13:30:46;;;;;;;5.53;5.03;;;22.10;46.10;;;;;;4898591;29;20568;-74
2021/03/31 13:33:15;;;;;;;4.70;4.50;;;22.00;46.30;;;;;;4897560;29;20877;-74
2021/03/31 13:35:47;;;;;;;5.30;4.87;;;22.10;46.50;;;;;;4898425;29;20820;-74
2021/03/31 13:38:17;;;;;;;5.20;4.90;;;22.10;46.70;;;;;;4897394;29;20543;-74
2021/03/31 13:40:43;;;;;;;5.50;5.10;;;22.10;46.60;;;;;;4897996;29;20484;-74
2021/03/31 13:43:09;;;;;;;6.20;5.70;;;22.10;45.50;;;;;;4896959;29;20475;-74
2021/03/31 13:45:37;;;;;;;5.47;5.07;;;22.10;46.30;;;;;;4897662;29;20471;-74
2021/03/31 13:48:06;;;;;;;4.57;4.37;;;22.00;46.90;;;;;;4897035;29;20508;-74
2021/03/31 13:50:33;;;;;;;6.13;4.90;;;22.20;46.20;;;;;;4897947;29;20487;-74
2021/03/31 13:53:01;;;;;;;4.63;4.30;;;22.30;45.10;;;;;;4896720;29;20554;-74
2021/03/31 13:55:29;;;;;;;4.97;4.67;;;22.20;44.80;;;;;;4897676;29;20472;-74
2021/03/31 13:57:56;;;;;;;4.37;4.07;;;22.20;45.20;;;;;;4897310;29;20471;-74
2021/03/31 14:00:26;;;;;;;5.40;5.10;;;22.20;46.00;;;;;;4897693;29;20498;-73
2021/03/31 14:02:54;;;;;;;5.47;5.00;;;22.20;45.90;;;;;;4897440;29;20809;-74
2021/03/31 14:05:22;;;;;;;5.47;4.97;;;22.20;45.10;;;;;;4897457;29;20491;-73
2021/03/31 14:07:48;;;;;;;4.33;4.13;;;22.10;45.10;;;;;;4896977;29;20473;-73
2021/03/31 14:10:16;;;;;;;5.60;5.07;;;22.10;45.70;;;;;;4897363;29;20456;-73
2021/03/31 14:12:43;;;;;;;5.13;4.60;;;22.10;45.70;;;;;;4896453;29;20471;-73
2021/03/31 14:15:10;;;;;;;4.60;4.30;;;22.20;44.60;;;;;;4897554;29;20470;-73
2021/03/31 14:17:37;;;;;;;5.07;4.80;;;22.20;44.10;;;;;;4897620;29;20460;-74
2021/03/31 14:20:08;;;;;;;4.73;4.40;;;22.30;44.60;;;;;;4897935;29;20586;-74
2021/03/31 14:22:36;;;;;;;5.17;4.87;;;22.30;44.20;;;;;;4896328;29;20840;-74
2021/03/31 14:25:05;;;;;;;4.93;4.60;;;22.30;45.20;;;;;;4897244;29;21166;-73
2021/03/31 14:27:31;;;;;;;4.43;4.20;;;22.30;43.50;;;;;;4896073;29;20473;-73
2021/03/31 14:29:57;;;;;;;5.10;4.70;;;22.30;41.50;;;;;;4897385;29;20918;-72
2021/03/31 14:32:23;;;;;;;5.23;4.87;;;22.20;42.40;;;;;;4896576;29;20535;-73
2021/03/31 14:34:50;;;;;;;4.73;4.43;;;22.30;41.00;;;;;;4897140;29;20467;-72
2021/03/31 14:37:18;;;;;;;4.57;4.27;;;22.30;42.60;;;;;;4896768;29;20471;-72
2021/03/31 14:39:44;;;;;;;5.50;4.33;;;22.30;42.50;;;;;;4897365;29;20579;-73
2021/03/31 14:42:11;;;;;;;6.53;5.37;;;22.30;42.20;;;;;;4895961;29;20494;-72
2021/03/31 14:44:37;;;;;;;6.40;4.30;;;22.30;42.00;;;;;;4878517;29;20468;-73
2021/03/31 14:47:04;;;;;;;4.77;4.57;;;22.30;41.20;;;;;;4877637;29;20540;-73
2021/03/31 14:49:31;;;;;;;5.00;4.53;;;22.30;40.70;;;;;;4878830;29;20452;-73
2021/03/31 15:00:12;;;;;;;5.33;4.60;;;22.20;40.40;;;;;;4891870;29;20864;-74
2021/03/31 15:02:39;;;;;;;5.40;4.90;;;22.20;39.30;;;;;;4895873;29;20475;-73
2021/03/31 15:05:08;;;;;;;4.43;3.93;;;22.20;39.40;;;;;;4896062;29;20482;-73
2021/03/31 15:07:34;;;;;;;5.80;4.90;;;22.10;39.70;;;;;;4896365;29;20471;-72
2021/03/31 15:10:01;;;;;;;5.00;4.50;;;22.10;39.90;;;;;;4896539;29;20850;-72
2021/03/31 15:12:27;;;;;;;4.53;4.20;;;22.00;39.50;;;;;;4895907;29;20494;-73
2021/03/31 15:14:54;;;;;;;4.70;4.40;;;22.00;39.70;;;;;;4896256;29;20495;-73
2021/03/31 15:17:20;;;;;;;5.13;4.70;;;22.00;40.40;;;;;;4895987;29;20475;-73
2021/03/31 15:19:51;;;;;;;6.40;5.90;;;22.00;41.00;;;;;;4896673;29;20975;-73
2021/03/31 15:22:24;;;;;;;6.23;5.63;;;22.00;41.30;;;;;;4895570;29;20491;-72
2021/03/31 15:24:52;;;;;;;6.27;5.87;;;22.00;41.70;;;;;;4896820;29;20902;-73
2021/03/31 15:27:20;;;;;;;7.00;5.70;;;21.90;41.40;;;;;;4896028;29;20479;-73
2021/03/31 15:29:46;;;;;;;8.13;5.70;;;22.00;41.50;;;;;;4896521;29;20495;-72
2021/03/31 15:32:13;;;;;;;6.23;5.83;;;21.90;41.80;;;;;;4895664;29;20494;-73
2021/03/31 15:34:39;;;;;;;7.83;6.23;;;21.90;43.20;;;;;;4897171;29;20562;-73
2021/03/31 15:37:06;;;;;;;7.03;6.23;;;21.90;43.10;;;;;;4896043;29;20486;-74
2021/03/31 15:39:32;;;;;;;7.17;6.57;;;21.80;43.20;;;;;;4882373;29;20476;-73
2021/03/31 15:41:59;;;;;;;6.60;6.03;;;21.80;44.40;;;;;;4895885;29;20852;-73
2021/03/31 15:44:27;;;;;;;9.30;6.27;;;21.80;43.40;;;;;;4895307;29;20466;-73
2021/03/31 15:46:59;;;;;;;5.50;5.10;;;21.80;44.30;;;;;;4896185;29;20470;-73
2021/03/31 15:49:26;;;;;;;7.33;6.30;;;21.80;44.30;;;;;;4896207;29;20509;-74
2021/03/31 15:51:52;;;;;;;7.37;6.67;;;21.80;44.20;;;;;;4894602;29;20538;-73
2021/03/31 15:54:18;;;;;;;6.17;5.53;;;21.80;44.20;;;;;;4896244;29;20471;-73
2021/03/31 15:56:45;;;;;;;6.77;6.07;;;21.80;43.80;;;;;;4895028;29;20467;-74
2021/03/31 15:59:11;;;;;;;7.63;5.70;;;21.80;44.80;;;;;;4895102;29;20527;-73
2021/03/31 16:01:38;;;;;;;6.30;5.70;;;21.80;44.80;;;;;;4895613;29;20864;-73
2021/03/31 16:04:10;;;;;;;6.37;5.87;;;21.70;45.00;;;;;;4892812;29;20581;-73
2021/03/31 16:09:20;;;;;;;5.07;4.77;;;21.70;43.40;;;;;;4890733;29;21032;-73
2021/03/31 16:11:46;;;;;;;6.40;5.20;;;21.70;44.00;;;;;;4883080;29;20996;-73
2021/03/31 16:14:13;;;;;;;5.83;5.10;;;21.70;43.70;;;;;;4895251;29;20475;-73
2021/03/31 16:16:40;;;;;;;7.83;5.33;;;21.70;43.40;;;;;;4888336;29;20488;-74
2021/03/31 16:19:06;;;;;;;6.27;4.70;;;21.70;42.90;;;;;;4897813;29;20929;-73
2021/03/31 16:21:35;;;;;;;5.43;5.07;;;21.60;42.90;;;;;;4896882;29;21050;-73
2021/03/31 16:24:01;;;;;;;6.27;4.87;;;21.60;43.60;;;;;;4897692;29;20526;-74
2021/03/31 16:26:27;;;;;;;5.43;4.93;;;21.60;42.50;;;;;;4898427;29;20844;-73
2021/03/31 16:29:04;;;;;;;6.50;5.87;;;21.60;43.20;;;;;;4898877;29;20498;-73
2021/03/31 16:31:32;;;;;;;6.73;6.13;;;21.50;43.80;;;;;;4898994;29;20625;-73
2021/03/31 16:34:01;;;;;;;6.03;5.53;;;21.40;44.90;;;;;;4898099;29;20498;-73
2021/03/31 16:36:29;;;;;;;5.53;5.13;;;21.40;44.70;;;;;;4898450;29;20834;-73
2021/03/31 16:38:55;;;;;;;7.93;5.27;;;21.30;43.60;;;;;;4898899;29;20483;-72
2021/03/31 16:41:22;;;;;;;6.30;5.37;;;21.30;43.80;;;;;;4898568;29;20945;-71
2021/03/31 16:43:48;;;;;;;5.63;5.23;;;21.20;44.40;;;;;;4898840;29;20911;-71
2021/03/31 16:46:16;;;;;;;6.43;6.00;;;21.10;44.80;;;;;;4899226;29;20991;-72
2021/03/31 16:48:42;;;;;;;5.20;4.70;;;21.10;45.20;;;;;;4899187;29;20555;-71
2021/03/31 16:51:09;;;;;;;5.27;4.90;;;21.00;46.20;;;;;;4898997;29;20502;-72
2021/03/31 16:53:35;;;;;;;6.13;5.63;;;20.90;46.40;;;;;;4897958;29;20492;-72
2021/03/31 16:56:02;;;;;;;5.10;4.70;;;20.90;46.00;;;;;;4880451;29;20480;-71
2021/03/31 16:58:28;;;;;;;6.73;5.87;;;20.80;46.90;;;;;;4891629;29;20468;-72
2021/03/31 17:00:54;;;;;;;5.93;5.33;;;20.70;47.00;;;;;;4894149;29;20498;-73
2021/03/31 17:03:20;;;;;;;6.20;5.77;;;20.70;47.80;;;;;;4898062;29;20459;-73
2021/03/31 17:05:46;;;;;;;7.27;6.47;;;20.60;48.50;;;;;;4899190;29;20562;-73
2021/03/31 17:08:14;;;;;;;7.13;5.50;;;20.50;48.10;;;;;;4898083;29;20547;-73
2021/03/31 17:10:41;;;;;;;6.00;5.50;;;20.30;48.60;;;;;;4897835;29;20495;-73
2021/03/31 17:13:07;;;;;;;5.10;4.80;;;20.20;48.80;;;;;;4897149;29;20460;-73
2021/03/31 17:15:33;;;;;;;5.90;5.30;;;20.10;49.00;;;;;;4898464;29;20495;-73
2021/03/31 17:18:00;;;;;;;9.57;7.20;;;20.00;48.80;;;;;;4898154;29;20972;-72
2021/03/31 17:20:26;;;;;;;7.10;5.20;;;19.90;49.70;;;;;;4897891;29;20948;-72